sensor_id;sensor_type;location;lat;lon;timestamp;P1;durP1;ratioP1;P2;durP2;ratioP2
5704;SDS011;2877;48.238;11.160;2022-08-19T00:00:07;10.10;;;8.60;;
5704;SDS011;2877;48.238;11.160;2022-08-19T00:02:35;8.93;;;8.00;;
5704;SDS011;2877;48.238;11.160;2022-08-19T00:05:01;9.43;;;7.87;;
5704;SDS011;2877;48.238;11.160;2022-08-19T00:07:28;7.70;;;6.90;;
5704;SDS011;2877;48.238;11.160;2022-08-19T00:09:53;8.30;;;7.33;;
5704;SDS011;2877;48.238;11.160;2022-08-19T00:12:19;12.10;;;7.37;;
5704;SDS011;2877;48.238;11.160;2022-08-19T00:14:45;8.00;;;7.20;;
5704;SDS011;2877;48.238;11.160;2022-08-19T00:17:10;9.00;;;8.10;;
5704;SDS011;2877;48.238;11.160;2022-08-19T00:19:38;11.63;;;7.50;;
5704;SDS011;2877;48.238;11.160;2022-08-19T00:22:04;9.00;;;7.37;;
5704;SDS011;2877;48.238;11.160;2022-08-19T00:24:30;9.77;;;7.97;;
5704;SDS011;2877;48.238;11.160;2022-08-19T00:26:56;8.60;;;7.63;;
5704;SDS011;2877;48.238;11.160;2022-08-19T00:29:23;10.67;;;8.23;;
5704;SDS011;2877;48.238;11.160;2022-08-19T00:31:49;9.77;;;8.77;;
5704;SDS011;2877;48.238;11.160;2022-08-19T00:34:18;10.80;;;8.40;;
5704;SDS011;2877;48.238;11.160;2022-08-19T00:36:44;11.33;;;8.57;;
5704;SDS011;2877;48.238;11.160;2022-08-19T00:39:10;11.07;;;9.67;;
5704;SDS011;2877;48.238;11.160;2022-08-19T00:41:37;10.90;;;9.23;;
5704;SDS011;2877;48.238;11.160;2022-08-19T00:46:39;14.13;;;10.13;;
5704;SDS011;2877;48.238;11.160;2022-08-19T00:49:21;10.17;;;8.37;;
5704;SDS011;2877;48.238;11.160;2022-08-19T00:51:52;11.60;;;9.07;;
5704;SDS011;2877;48.238;11.160;2022-08-19T00:54:22;12.67;;;10.33;;
5704;SDS011;2877;48.238;11.160;2022-08-19T00:56:48;11.00;;;8.40;;
5704;SDS011;2877;48.238;11.160;2022-08-19T00:59:15;11.47;;;8.83;;
5704;SDS011;2877;48.238;11.160;2022-08-19T01:01:42;10.77;;;9.60;;
5704;SDS011;2877;48.238;11.160;2022-08-19T01:04:10;12.27;;;9.03;;
5704;SDS011;2877;48.238;11.160;2022-08-19T01:06:36;16.10;;;9.23;;
5704;SDS011;2877;48.238;11.160;2022-08-19T01:09:03;14.10;;;10.90;;
5704;SDS011;2877;48.238;11.160;2022-08-19T01:11:30;13.20;;;10.87;;
5704;SDS011;2877;48.238;11.160;2022-08-19T01:13:59;13.70;;;10.70;;
5704;SDS011;2877;48.238;11.160;2022-08-19T01:16:25;12.70;;;10.27;;
5704;SDS011;2877;48.238;11.160;2022-08-19T01:18:53;13.33;;;10.80;;
5704;SDS011;2877;48.238;11.160;2022-08-19T01:24:01;13.80;;;10.93;;
5704;SDS011;2877;48.238;11.160;2022-08-19T01:26:27;17.03;;;10.60;;
5704;SDS011;2877;48.238;11.160;2022-08-19T01:28:56;12.67;;;10.40;;
5704;SDS011;2877;48.238;11.160;2022-08-19T01:31:24;13.33;;;10.67;;
5704;SDS011;2877;48.238;11.160;2022-08-19T01:33:53;13.87;;;10.53;;
5704;SDS011;2877;48.238;11.160;2022-08-19T01:36:32;15.97;;;11.97;;
5704;SDS011;2877;48.238;11.160;2022-08-19T01:39:00;13.63;;;11.27;;
5704;SDS011;2877;48.238;11.160;2022-08-19T01:41:28;15.70;;;11.67;;
5704;SDS011;2877;48.238;11.160;2022-08-19T01:43:54;17.17;;;12.70;;
5704;SDS011;2877;48.238;11.160;2022-08-19T01:46:21;12.57;;;10.63;;
5704;SDS011;2877;48.238;11.160;2022-08-19T01:48:47;18.10;;;12.57;;
5704;SDS011;2877;48.238;11.160;2022-08-19T01:51:13;17.43;;;12.70;;
5704;SDS011;2877;48.238;11.160;2022-08-19T01:53:39;14.10;;;12.00;;
5704;SDS011;2877;48.238;11.160;2022-08-19T01:56:05;14.10;;;11.73;;
5704;SDS011;2877;48.238;11.160;2022-08-19T01:58:35;11.57;;;10.20;;
5704;SDS011;2877;48.238;11.160;2022-08-19T02:01:05;14.03;;;11.37;;
5704;SDS011;2877;48.238;11.160;2022-08-19T02:03:32;14.60;;;12.13;;
5704;SDS011;2877;48.238;11.160;2022-08-19T02:06:00;15.60;;;13.00;;
5704;SDS011;2877;48.238;11.160;2022-08-19T02:08:27;13.43;;;11.20;;
5704;SDS011;2877;48.238;11.160;2022-08-19T02:10:53;12.83;;;11.20;;
5704;SDS011;2877;48.238;11.160;2022-08-19T02:13:19;13.90;;;11.57;;
5704;SDS011;2877;48.238;11.160;2022-08-19T02:15:45;14.27;;;11.90;;
5704;SDS011;2877;48.238;11.160;2022-08-19T02:18:10;13.10;;;10.40;;
5704;SDS011;2877;48.238;11.160;2022-08-19T02:20:36;14.03;;;12.23;;
5704;SDS011;2877;48.238;11.160;2022-08-19T02:23:03;13.40;;;10.80;;
5704;SDS011;2877;48.238;11.160;2022-08-19T02:25:29;14.23;;;11.93;;
5704;SDS011;2877;48.238;11.160;2022-08-19T02:27:55;12.60;;;10.67;;
5704;SDS011;2877;48.238;11.160;2022-08-19T02:30:20;15.73;;;12.77;;
5704;SDS011;2877;48.238;11.160;2022-08-19T02:32:46;14.23;;;11.60;;
5704;SDS011;2877;48.238;11.160;2022-08-19T02:35:12;12.57;;;10.90;;
5704;SDS011;2877;48.238;11.160;2022-08-19T02:37:39;13.90;;;11.50;;
5704;SDS011;2877;48.238;11.160;2022-08-19T02:40:25;14.97;;;12.10;;
5704;SDS011;2877;48.238;11.160;2022-08-19T02:42:51;16.00;;;11.03;;
5704;SDS011;2877;48.238;11.160;2022-08-19T02:45:17;14.03;;;11.07;;
5704;SDS011;2877;48.238;11.160;2022-08-19T02:47:42;18.73;;;12.03;;
5704;SDS011;2877;48.238;11.160;2022-08-19T02:50:08;15.50;;;11.90;;
5704;SDS011;2877;48.238;11.160;2022-08-19T02:52:34;15.87;;;12.70;;
5704;SDS011;2877;48.238;11.160;2022-08-19T02:55:00;14.97;;;12.30;;
5704;SDS011;2877;48.238;11.160;2022-08-19T02:57:26;13.00;;;11.37;;
5704;SDS011;2877;48.238;11.160;2022-08-19T02:59:52;16.43;;;12.20;;
5704;SDS011;2877;48.238;11.160;2022-08-19T03:02:18;15.90;;;12.60;;
5704;SDS011;2877;48.238;11.160;2022-08-19T03:04:44;13.33;;;11.70;;
5704;SDS011;2877;48.238;11.160;2022-08-19T03:07:13;16.13;;;12.90;;
5704;SDS011;2877;48.238;11.160;2022-08-19T03:09:39;17.40;;;12.93;;
5704;SDS011;2877;48.238;11.160;2022-08-19T03:12:05;18.50;;;13.43;;
5704;SDS011;2877;48.238;11.160;2022-08-19T03:14:31;14.50;;;12.00;;
5704;SDS011;2877;48.238;11.160;2022-08-19T03:16:58;17.80;;;12.57;;
5704;SDS011;2877;48.238;11.160;2022-08-19T03:19:23;17.20;;;13.40;;
5704;SDS011;2877;48.238;11.160;2022-08-19T03:21:49;19.27;;;14.00;;
5704;SDS011;2877;48.238;11.160;2022-08-19T03:24:15;17.47;;;13.50;;
5704;SDS011;2877;48.238;11.160;2022-08-19T03:26:43;15.83;;;13.00;;
5704;SDS011;2877;48.238;11.160;2022-08-19T03:29:11;16.93;;;13.87;;
5704;SDS011;2877;48.238;11.160;2022-08-19T03:31:38;19.00;;;14.40;;
5704;SDS011;2877;48.238;11.160;2022-08-19T03:34:05;19.53;;;14.87;;
5704;SDS011;2877;48.238;11.160;2022-08-19T03:36:30;20.13;;;12.63;;
5704;SDS011;2877;48.238;11.160;2022-08-19T03:38:58;16.90;;;13.17;;
5704;SDS011;2877;48.238;11.160;2022-08-19T03:41:26;16.63;;;13.30;;
5704;SDS011;2877;48.238;11.160;2022-08-19T03:43:54;18.97;;;14.87;;
5704;SDS011;2877;48.238;11.160;2022-08-19T03:46:23;19.87;;;13.90;;
5704;SDS011;2877;48.238;11.160;2022-08-19T03:48:51;17.07;;;13.20;;
5704;SDS011;2877;48.238;11.160;2022-08-19T03:51:24;16.20;;;13.70;;
5704;SDS011;2877;48.238;11.160;2022-08-19T03:53:52;18.10;;;14.10;;
5704;SDS011;2877;48.238;11.160;2022-08-19T03:56:18;17.47;;;13.43;;
5704;SDS011;2877;48.238;11.160;2022-08-19T03:58:44;18.83;;;15.23;;
5704;SDS011;2877;48.238;11.160;2022-08-19T04:01:14;19.63;;;14.40;;
5704;SDS011;2877;48.238;11.160;2022-08-19T04:03:41;19.07;;;14.23;;
5704;SDS011;2877;48.238;11.160;2022-08-19T04:06:14;19.90;;;14.27;;
5704;SDS011;2877;48.238;11.160;2022-08-19T04:08:44;20.70;;;14.37;;
5704;SDS011;2877;48.238;11.160;2022-08-19T04:11:11;17.10;;;14.37;;
5704;SDS011;2877;48.238;11.160;2022-08-19T04:13:39;23.03;;;16.50;;
5704;SDS011;2877;48.238;11.160;2022-08-19T04:16:06;21.57;;;17.60;;
5704;SDS011;2877;48.238;11.160;2022-08-19T04:18:35;23.50;;;17.87;;
5704;SDS011;2877;48.238;11.160;2022-08-19T04:21:01;21.70;;;16.07;;
5704;SDS011;2877;48.238;11.160;2022-08-19T04:23:27;26.53;;;19.43;;
5704;SDS011;2877;48.238;11.160;2022-08-19T04:25:53;22.37;;;18.03;;
5704;SDS011;2877;48.238;11.160;2022-08-19T04:28:19;19.67;;;14.90;;
5704;SDS011;2877;48.238;11.160;2022-08-19T04:30:46;22.00;;;17.70;;
5704;SDS011;2877;48.238;11.160;2022-08-19T04:33:14;22.23;;;17.87;;
5704;SDS011;2877;48.238;11.160;2022-08-19T04:35:45;24.20;;;18.03;;
5704;SDS011;2877;48.238;11.160;2022-08-19T04:38:13;24.70;;;19.17;;
5704;SDS011;2877;48.238;11.160;2022-08-19T04:40:43;25.53;;;17.90;;
5704;SDS011;2877;48.238;11.160;2022-08-19T04:43:29;21.57;;;17.20;;
5704;SDS011;2877;48.238;11.160;2022-08-19T04:45:55;24.93;;;19.57;;
5704;SDS011;2877;48.238;11.160;2022-08-19T04:48:21;22.90;;;18.47;;
5704;SDS011;2877;48.238;11.160;2022-08-19T04:50:54;24.77;;;19.77;;
5704;SDS011;2877;48.238;11.160;2022-08-19T04:53:25;22.93;;;19.00;;
5704;SDS011;2877;48.238;11.160;2022-08-19T04:55:54;23.47;;;17.90;;
5704;SDS011;2877;48.238;11.160;2022-08-19T04:58:21;22.47;;;18.73;;
5704;SDS011;2877;48.238;11.160;2022-08-19T05:00:47;25.40;;;19.23;;
5704;SDS011;2877;48.238;11.160;2022-08-19T05:03:12;22.27;;;17.77;;
5704;SDS011;2877;48.238;11.160;2022-08-19T05:05:42;25.70;;;19.17;;
5704;SDS011;2877;48.238;11.160;2022-08-19T05:08:09;24.90;;;19.63;;
5704;SDS011;2877;48.238;11.160;2022-08-19T05:10:36;24.63;;;19.77;;
5704;SDS011;2877;48.238;11.160;2022-08-19T05:13:04;24.83;;;18.83;;
5704;SDS011;2877;48.238;11.160;2022-08-19T05:15:30;25.20;;;19.77;;
5704;SDS011;2877;48.238;11.160;2022-08-19T05:17:56;31.93;;;21.53;;
5704;SDS011;2877;48.238;11.160;2022-08-19T05:20:40;25.23;;;19.57;;
5704;SDS011;2877;48.238;11.160;2022-08-19T05:23:25;24.50;;;19.63;;
5704;SDS011;2877;48.238;11.160;2022-08-19T05:25:51;27.50;;;21.10;;
5704;SDS011;2877;48.238;11.160;2022-08-19T05:28:18;29.57;;;22.77;;
5704;SDS011;2877;48.238;11.160;2022-08-19T05:30:44;33.93;;;21.67;;
5704;SDS011;2877;48.238;11.160;2022-08-19T05:33:11;29.70;;;21.80;;
5704;SDS011;2877;48.238;11.160;2022-08-19T05:35:37;28.20;;;20.30;;
5704;SDS011;2877;48.238;11.160;2022-08-19T05:38:04;28.00;;;21.20;;
5704;SDS011;2877;48.238;11.160;2022-08-19T05:40:33;26.60;;;21.13;;
5704;SDS011;2877;48.238;11.160;2022-08-19T05:43:00;24.57;;;19.80;;
5704;SDS011;2877;48.238;11.160;2022-08-19T05:45:27;27.27;;;20.93;;
5704;SDS011;2877;48.238;11.160;2022-08-19T05:47:53;27.17;;;21.60;;
5704;SDS011;2877;48.238;11.160;2022-08-19T05:50:19;26.90;;;20.27;;
5704;SDS011;2877;48.238;11.160;2022-08-19T05:52:45;25.63;;;21.73;;
5704;SDS011;2877;48.238;11.160;2022-08-19T05:55:10;30.10;;;21.13;;
5704;SDS011;2877;48.238;11.160;2022-08-19T05:57:36;30.67;;;21.30;;
5704;SDS011;2877;48.238;11.160;2022-08-19T06:00:03;30.87;;;21.70;;
5704;SDS011;2877;48.238;11.160;2022-08-19T06:02:33;30.17;;;22.07;;
5704;SDS011;2877;48.238;11.160;2022-08-19T06:05:00;29.87;;;21.93;;
5704;SDS011;2877;48.238;11.160;2022-08-19T06:07:27;32.77;;;23.37;;
5704;SDS011;2877;48.238;11.160;2022-08-19T06:09:53;30.97;;;23.70;;
5704;SDS011;2877;48.238;11.160;2022-08-19T06:12:19;37.27;;;22.00;;
5704;SDS011;2877;48.238;11.160;2022-08-19T06:14:45;33.63;;;23.80;;
5704;SDS011;2877;48.238;11.160;2022-08-19T06:17:11;29.63;;;22.83;;
5704;SDS011;2877;48.238;11.160;2022-08-19T06:19:37;33.27;;;23.07;;
5704;SDS011;2877;48.238;11.160;2022-08-19T06:22:04;30.43;;;21.87;;
5704;SDS011;2877;48.238;11.160;2022-08-19T06:24:31;30.40;;;22.30;;
5704;SDS011;2877;48.238;11.160;2022-08-19T06:26:57;31.27;;;22.90;;
5704;SDS011;2877;48.238;11.160;2022-08-19T06:29:24;28.70;;;22.30;;
5704;SDS011;2877;48.238;11.160;2022-08-19T06:31:53;28.67;;;21.77;;
5704;SDS011;2877;48.238;11.160;2022-08-19T06:34:21;28.20;;;22.03;;
5704;SDS011;2877;48.238;11.160;2022-08-19T06:36:48;27.87;;;21.20;;
5704;SDS011;2877;48.238;11.160;2022-08-19T06:39:21;30.70;;;22.40;;
5704;SDS011;2877;48.238;11.160;2022-08-19T06:41:49;30.73;;;20.70;;
5704;SDS011;2877;48.238;11.160;2022-08-19T06:44:19;29.20;;;21.50;;
5704;SDS011;2877;48.238;11.160;2022-08-19T06:46:45;32.73;;;21.63;;
5704;SDS011;2877;48.238;11.160;2022-08-19T06:49:13;29.07;;;21.23;;
5704;SDS011;2877;48.238;11.160;2022-08-19T06:51:42;25.13;;;20.30;;
5704;SDS011;2877;48.238;11.160;2022-08-19T06:54:09;24.70;;;20.40;;
5704;SDS011;2877;48.238;11.160;2022-08-19T06:56:35;30.37;;;22.27;;
5704;SDS011;2877;48.238;11.160;2022-08-19T06:59:02;29.23;;;21.93;;
5704;SDS011;2877;48.238;11.160;2022-08-19T07:01:30;30.07;;;22.97;;
5704;SDS011;2877;48.238;11.160;2022-08-19T07:04:02;26.43;;;21.40;;
5704;SDS011;2877;48.238;11.160;2022-08-19T07:06:28;33.80;;;23.07;;
5704;SDS011;2877;48.238;11.160;2022-08-19T07:08:56;30.80;;;22.90;;
5704;SDS011;2877;48.238;11.160;2022-08-19T07:11:23;32.77;;;23.43;;
5704;SDS011;2877;48.238;11.160;2022-08-19T07:13:49;30.00;;;22.97;;
5704;SDS011;2877;48.238;11.160;2022-08-19T07:16:15;29.17;;;22.40;;
5704;SDS011;2877;48.238;11.160;2022-08-19T07:18:43;29.50;;;22.60;;
5704;SDS011;2877;48.238;11.160;2022-08-19T07:21:10;33.80;;;23.00;;
5704;SDS011;2877;48.238;11.160;2022-08-19T07:23:38;30.97;;;22.43;;
5704;SDS011;2877;48.238;11.160;2022-08-19T07:26:06;29.67;;;21.90;;
5704;SDS011;2877;48.238;11.160;2022-08-19T07:28:33;35.13;;;25.60;;
5704;SDS011;2877;48.238;11.160;2022-08-19T07:30:58;35.07;;;25.67;;
5704;SDS011;2877;48.238;11.160;2022-08-19T07:33:26;40.70;;;26.00;;
5704;SDS011;2877;48.238;11.160;2022-08-19T07:35:52;38.70;;;27.10;;
5704;SDS011;2877;48.238;11.160;2022-08-19T07:38:19;37.57;;;26.50;;
5704;SDS011;2877;48.238;11.160;2022-08-19T07:40:45;36.37;;;26.03;;
5704;SDS011;2877;48.238;11.160;2022-08-19T07:43:10;39.43;;;25.23;;
5704;SDS011;2877;48.238;11.160;2022-08-19T07:45:36;43.43;;;28.30;;
5704;SDS011;2877;48.238;11.160;2022-08-19T07:48:02;42.90;;;29.20;;
5704;SDS011;2877;48.238;11.160;2022-08-19T07:50:28;42.17;;;28.50;;
5704;SDS011;2877;48.238;11.160;2022-08-19T07:52:54;41.37;;;28.40;;
5704;SDS011;2877;48.238;11.160;2022-08-19T07:55:23;40.63;;;26.63;;
5704;SDS011;2877;48.238;11.160;2022-08-19T07:57:50;47.33;;;30.00;;
5704;SDS011;2877;48.238;11.160;2022-08-19T08:00:17;36.17;;;26.00;;
5704;SDS011;2877;48.238;11.160;2022-08-19T08:02:43;38.87;;;26.73;;
5704;SDS011;2877;48.238;11.160;2022-08-19T08:05:09;50.20;;;27.87;;
5704;SDS011;2877;48.238;11.160;2022-08-19T08:07:53;46.60;;;28.27;;
5704;SDS011;2877;48.238;11.160;2022-08-19T08:10:38;40.93;;;26.47;;
5704;SDS011;2877;48.238;11.160;2022-08-19T08:13:03;43.13;;;28.23;;
5704;SDS011;2877;48.238;11.160;2022-08-19T08:15:30;40.53;;;27.27;;
5704;SDS011;2877;48.238;11.160;2022-08-19T08:17:56;42.03;;;27.43;;
5704;SDS011;2877;48.238;11.160;2022-08-19T08:20:22;41.47;;;28.17;;
5704;SDS011;2877;48.238;11.160;2022-08-19T08:22:48;44.80;;;29.27;;
5704;SDS011;2877;48.238;11.160;2022-08-19T08:25:33;40.37;;;29.77;;
5704;SDS011;2877;48.238;11.160;2022-08-19T08:28:00;41.93;;;29.70;;
5704;SDS011;2877;48.238;11.160;2022-08-19T08:30:27;47.73;;;29.70;;
5704;SDS011;2877;48.238;11.160;2022-08-19T08:32:54;46.40;;;29.83;;
5704;SDS011;2877;48.238;11.160;2022-08-19T08:35:21;48.07;;;29.40;;
5704;SDS011;2877;48.238;11.160;2022-08-19T08:37:48;50.53;;;26.57;;
5704;SDS011;2877;48.238;11.160;2022-08-19T08:40:24;42.30;;;21.90;;
5704;SDS011;2877;48.238;11.160;2022-08-19T08:45:33;23.27;;;15.70;;
5704;SDS011;2877;48.238;11.160;2022-08-19T08:48:05;22.20;;;12.13;;
5704;SDS011;2877;48.238;11.160;2022-08-19T08:50:41;13.43;;;10.03;;
5704;SDS011;2877;48.238;11.160;2022-08-19T08:53:10;21.87;;;15.17;;
5704;SDS011;2877;48.238;11.160;2022-08-19T08:55:40;24.03;;;15.50;;
5704;SDS011;2877;48.238;11.160;2022-08-19T08:58:08;25.10;;;16.60;;
5704;SDS011;2877;48.238;11.160;2022-08-19T09:00:39;27.13;;;18.10;;
5704;SDS011;2877;48.238;11.160;2022-08-19T09:03:21;33.13;;;19.33;;
5704;SDS011;2877;48.238;11.160;2022-08-19T09:08:22;40.13;;;18.20;;
5704;SDS011;2877;48.238;11.160;2022-08-19T09:10:56;29.50;;;18.60;;
5704;SDS011;2877;48.238;11.160;2022-08-19T09:13:28;29.17;;;18.97;;
5704;SDS011;2877;48.238;11.160;2022-08-19T09:16:19;29.87;;;16.80;;
5704;SDS011;2877;48.238;11.160;2022-08-19T09:18:46;28.60;;;16.50;;
5704;SDS011;2877;48.238;11.160;2022-08-19T09:21:17;30.50;;;17.03;;
5704;SDS011;2877;48.238;11.160;2022-08-19T09:23:43;20.27;;;14.03;;
5704;SDS011;2877;48.238;11.160;2022-08-19T09:26:14;16.07;;;11.37;;
5704;SDS011;2877;48.238;11.160;2022-08-19T09:28:41;17.53;;;11.97;;
5704;SDS011;2877;48.238;11.160;2022-08-19T09:31:11;19.97;;;12.63;;
5704;SDS011;2877;48.238;11.160;2022-08-19T09:33:38;19.47;;;13.00;;
5704;SDS011;2877;48.238;11.160;2022-08-19T09:36:05;17.80;;;11.97;;
5704;SDS011;2877;48.238;11.160;2022-08-19T09:38:32;11.77;;;8.73;;
5704;SDS011;2877;48.238;11.160;2022-08-19T09:41:02;12.10;;;9.40;;
5704;SDS011;2877;48.238;11.160;2022-08-19T09:43:31;14.10;;;10.00;;
5704;SDS011;2877;48.238;11.160;2022-08-19T09:45:58;15.90;;;10.13;;
5704;SDS011;2877;48.238;11.160;2022-08-19T09:48:25;13.93;;;10.67;;
5704;SDS011;2877;48.238;11.160;2022-08-19T09:50:51;17.40;;;10.70;;
5704;SDS011;2877;48.238;11.160;2022-08-19T09:53:16;14.53;;;10.23;;
5704;SDS011;2877;48.238;11.160;2022-08-19T09:55:42;16.30;;;9.70;;
5704;SDS011;2877;48.238;11.160;2022-08-19T09:58:08;14.83;;;10.03;;
5704;SDS011;2877;48.238;11.160;2022-08-19T10:00:34;13.30;;;9.50;;
5704;SDS011;2877;48.238;11.160;2022-08-19T10:03:01;13.23;;;9.53;;
5704;SDS011;2877;48.238;11.160;2022-08-19T10:05:27;14.87;;;10.63;;
5704;SDS011;2877;48.238;11.160;2022-08-19T10:08:11;14.13;;;9.27;;
5704;SDS011;2877;48.238;11.160;2022-08-19T10:10:36;13.10;;;9.00;;
5704;SDS011;2877;48.238;11.160;2022-08-19T10:13:02;13.33;;;9.20;;
5704;SDS011;2877;48.238;11.160;2022-08-19T10:15:28;11.40;;;8.80;;
5704;SDS011;2877;48.238;11.160;2022-08-19T10:17:54;12.23;;;9.03;;
5704;SDS011;2877;48.238;11.160;2022-08-19T10:20:20;11.53;;;8.07;;
5704;SDS011;2877;48.238;11.160;2022-08-19T10:22:47;12.17;;;8.70;;
5704;SDS011;2877;48.238;11.160;2022-08-19T10:25:13;10.10;;;7.73;;
5704;SDS011;2877;48.238;11.160;2022-08-19T10:27:39;11.00;;;7.57;;
5704;SDS011;2877;48.238;11.160;2022-08-19T10:30:05;11.03;;;7.20;;
5704;SDS011;2877;48.238;11.160;2022-08-19T10:32:31;9.50;;;6.97;;
5704;SDS011;2877;48.238;11.160;2022-08-19T10:34:57;8.67;;;7.10;;
5704;SDS011;2877;48.238;11.160;2022-08-19T10:37:22;10.83;;;7.70;;
5704;SDS011;2877;48.238;11.160;2022-08-19T10:39:48;12.30;;;8.80;;
5704;SDS011;2877;48.238;11.160;2022-08-19T10:42:13;12.50;;;8.30;;
5704;SDS011;2877;48.238;11.160;2022-08-19T10:44:41;11.47;;;7.57;;
5704;SDS011;2877;48.238;11.160;2022-08-19T10:47:06;10.20;;;7.07;;
5704;SDS011;2877;48.238;11.160;2022-08-19T10:49:32;8.77;;;7.67;;
5704;SDS011;2877;48.238;11.160;2022-08-19T10:52:17;7.90;;;6.33;;
5704;SDS011;2877;48.238;11.160;2022-08-19T10:54:58;5.00;;;4.50;;
5704;SDS011;2877;48.238;11.160;2022-08-19T10:57:47;4.70;;;3.77;;
5704;SDS011;2877;48.238;11.160;2022-08-19T11:00:13;5.73;;;3.60;;
5704;SDS011;2877;48.238;11.160;2022-08-19T11:02:39;4.33;;;3.60;;
5704;SDS011;2877;48.238;11.160;2022-08-19T11:05:06;4.47;;;3.77;;
5704;SDS011;2877;48.238;11.160;2022-08-19T11:07:32;3.50;;;3.20;;
5704;SDS011;2877;48.238;11.160;2022-08-19T11:09:58;4.23;;;3.70;;
5704;SDS011;2877;48.238;11.160;2022-08-19T11:12:23;4.10;;;3.70;;
5704;SDS011;2877;48.238;11.160;2022-08-19T11:14:49;4.20;;;3.80;;
5704;SDS011;2877;48.238;11.160;2022-08-19T11:17:15;4.27;;;3.50;;
5704;SDS011;2877;48.238;11.160;2022-08-19T11:19:41;3.63;;;3.33;;
5704;SDS011;2877;48.238;11.160;2022-08-19T11:22:07;3.60;;;3.30;;
5704;SDS011;2877;48.238;11.160;2022-08-19T11:24:34;4.03;;;3.63;;
5704;SDS011;2877;48.238;11.160;2022-08-19T11:27:02;4.07;;;3.77;;
5704;SDS011;2877;48.238;11.160;2022-08-19T11:29:32;3.33;;;3.00;;
5704;SDS011;2877;48.238;11.160;2022-08-19T11:31:59;4.10;;;3.70;;
5704;SDS011;2877;48.238;11.160;2022-08-19T11:34:28;4.17;;;3.87;;
5704;SDS011;2877;48.238;11.160;2022-08-19T11:36:54;5.80;;;4.50;;
5704;SDS011;2877;48.238;11.160;2022-08-19T11:39:24;4.50;;;4.10;;
5704;SDS011;2877;48.238;11.160;2022-08-19T11:41:51;6.20;;;5.07;;
5704;SDS011;2877;48.238;11.160;2022-08-19T11:44:17;5.87;;;5.17;;
5704;SDS011;2877;48.238;11.160;2022-08-19T11:46:43;4.10;;;3.70;;
5704;SDS011;2877;48.238;11.160;2022-08-19T11:49:12;5.13;;;4.63;;
5704;SDS011;2877;48.238;11.160;2022-08-19T11:51:39;4.87;;;4.37;;
5704;SDS011;2877;48.238;11.160;2022-08-19T11:54:06;5.60;;;4.03;;
5704;SDS011;2877;48.238;11.160;2022-08-19T11:56:33;5.70;;;4.93;;
5704;SDS011;2877;48.238;11.160;2022-08-19T11:58:58;4.87;;;4.47;;
5704;SDS011;2877;48.238;11.160;2022-08-19T12:01:26;4.40;;;4.00;;
5704;SDS011;2877;48.238;11.160;2022-08-19T12:03:52;4.70;;;4.13;;
5704;SDS011;2877;48.238;11.160;2022-08-19T12:06:21;7.73;;;4.33;;
5704;SDS011;2877;48.238;11.160;2022-08-19T12:08:50;4.47;;;4.07;;
5704;SDS011;2877;48.238;11.160;2022-08-19T12:11:16;4.50;;;4.10;;
5704;SDS011;2877;48.238;11.160;2022-08-19T12:13:42;5.93;;;4.97;;
5704;SDS011;2877;48.238;11.160;2022-08-19T12:16:14;5.60;;;5.10;;
5704;SDS011;2877;48.238;11.160;2022-08-19T12:18:41;4.73;;;4.33;;
5704;SDS011;2877;48.238;11.160;2022-08-19T12:21:17;4.57;;;4.17;;
5704;SDS011;2877;48.238;11.160;2022-08-19T12:23:46;4.53;;;3.77;;
5704;SDS011;2877;48.238;11.160;2022-08-19T12:26:12;4.87;;;4.10;;
5704;SDS011;2877;48.238;11.160;2022-08-19T12:28:38;4.37;;;3.97;;
5704;SDS011;2877;48.238;11.160;2022-08-19T12:31:04;2.80;;;2.60;;
5704;SDS011;2877;48.238;11.160;2022-08-19T12:33:30;2.67;;;2.53;;
5704;SDS011;2877;48.238;11.160;2022-08-19T12:36:00;6.23;;;3.10;;
5704;SDS011;2877;48.238;11.160;2022-08-19T12:38:27;3.57;;;2.93;;
5704;SDS011;2877;48.238;11.160;2022-08-19T12:40:53;3.50;;;3.23;;
5704;SDS011;2877;48.238;11.160;2022-08-19T12:43:19;3.77;;;3.00;;
5704;SDS011;2877;48.238;11.160;2022-08-19T12:45:45;4.30;;;3.60;;
5704;SDS011;2877;48.238;11.160;2022-08-19T12:48:11;4.17;;;3.77;;
5704;SDS011;2877;48.238;11.160;2022-08-19T12:50:40;4.60;;;4.20;;
5704;SDS011;2877;48.238;11.160;2022-08-19T12:53:10;5.73;;;5.13;;
5704;SDS011;2877;48.238;11.160;2022-08-19T12:55:35;6.13;;;5.53;;
5704;SDS011;2877;48.238;11.160;2022-08-19T12:58:01;7.47;;;6.67;;
5704;SDS011;2877;48.238;11.160;2022-08-19T13:00:27;10.43;;;6.30;;
5704;SDS011;2877;48.238;11.160;2022-08-19T13:02:53;7.10;;;5.60;;
5704;SDS011;2877;48.238;11.160;2022-08-19T13:05:20;5.13;;;4.73;;
5704;SDS011;2877;48.238;11.160;2022-08-19T13:07:48;4.73;;;4.23;;
5704;SDS011;2877;48.238;11.160;2022-08-19T13:10:16;4.90;;;4.40;;
5704;SDS011;2877;48.238;11.160;2022-08-19T13:12:44;4.00;;;3.70;;
5704;SDS011;2877;48.238;11.160;2022-08-19T13:15:12;4.17;;;3.87;;
5704;SDS011;2877;48.238;11.160;2022-08-19T13:17:38;4.50;;;3.13;;
5704;SDS011;2877;48.238;11.160;2022-08-19T13:20:05;2.53;;;2.37;;
5704;SDS011;2877;48.238;11.160;2022-08-19T13:22:32;2.17;;;2.03;;
5704;SDS011;2877;48.238;11.160;2022-08-19T13:24:58;2.33;;;2.20;;
5704;SDS011;2877;48.238;11.160;2022-08-19T13:27:24;2.50;;;2.30;;
5704;SDS011;2877;48.238;11.160;2022-08-19T13:29:49;2.07;;;1.97;;
5704;SDS011;2877;48.238;11.160;2022-08-19T13:32:33;2.33;;;2.13;;
5704;SDS011;2877;48.238;11.160;2022-08-19T13:35:17;1.90;;;1.80;;
5704;SDS011;2877;48.238;11.160;2022-08-19T13:37:43;2.17;;;2.07;;
5704;SDS011;2877;48.238;11.160;2022-08-19T13:40:14;2.20;;;2.10;;
5704;SDS011;2877;48.238;11.160;2022-08-19T13:42:41;3.30;;;2.67;;
5704;SDS011;2877;48.238;11.160;2022-08-19T13:45:09;2.33;;;2.13;;
5704;SDS011;2877;48.238;11.160;2022-08-19T13:47:35;2.40;;;2.30;;
5704;SDS011;2877;48.238;11.160;2022-08-19T13:50:07;2.83;;;2.37;;
5704;SDS011;2877;48.238;11.160;2022-08-19T13:52:34;2.37;;;2.27;;
5704;SDS011;2877;48.238;11.160;2022-08-19T13:55:00;2.67;;;2.50;;
5704;SDS011;2877;48.238;11.160;2022-08-19T13:57:25;2.90;;;2.70;;
5704;SDS011;2877;48.238;11.160;2022-08-19T13:59:51;3.83;;;2.93;;
5704;SDS011;2877;48.238;11.160;2022-08-19T14:02:16;2.90;;;2.70;;
5704;SDS011;2877;48.238;11.160;2022-08-19T14:04:42;3.27;;;2.97;;
5704;SDS011;2877;48.238;11.160;2022-08-19T14:07:07;3.50;;;3.20;;
5704;SDS011;2877;48.238;11.160;2022-08-19T14:09:34;3.10;;;2.80;;
5704;SDS011;2877;48.238;11.160;2022-08-19T14:12:00;3.50;;;3.20;;
5704;SDS011;2877;48.238;11.160;2022-08-19T14:14:25;3.70;;;3.40;;
5704;SDS011;2877;48.238;11.160;2022-08-19T14:16:51;3.23;;;3.00;;
5704;SDS011;2877;48.238;11.160;2022-08-19T14:19:16;4.13;;;3.83;;
5704;SDS011;2877;48.238;11.160;2022-08-19T14:21:42;3.20;;;3.00;;
5704;SDS011;2877;48.238;11.160;2022-08-19T14:24:08;4.07;;;3.70;;
5704;SDS011;2877;48.238;11.160;2022-08-19T14:26:33;3.50;;;3.20;;
5704;SDS011;2877;48.238;11.160;2022-08-19T14:28:59;4.20;;;3.80;;
5704;SDS011;2877;48.238;11.160;2022-08-19T14:31:26;3.37;;;3.07;;
5704;SDS011;2877;48.238;11.160;2022-08-19T14:33:52;3.87;;;3.57;;
5704;SDS011;2877;48.238;11.160;2022-08-19T14:36:19;5.23;;;4.80;;
5704;SDS011;2877;48.238;11.160;2022-08-19T14:38:46;6.10;;;5.50;;
5704;SDS011;2877;48.238;11.160;2022-08-19T14:41:16;11.90;;;5.60;;
5704;SDS011;2877;48.238;11.160;2022-08-19T14:43:45;6.33;;;5.50;;
5704;SDS011;2877;48.238;11.160;2022-08-19T14:46:14;7.73;;;6.13;;
5704;SDS011;2877;48.238;11.160;2022-08-19T14:48:41;7.47;;;6.67;;
5704;SDS011;2877;48.238;11.160;2022-08-19T14:51:07;10.83;;;8.07;;
5704;SDS011;2877;48.238;11.160;2022-08-19T14:53:33;10.10;;;8.43;;
5704;SDS011;2877;48.238;11.160;2022-08-19T14:55:59;8.90;;;7.20;;